Date,TemperatureHighF,TemperatureAvgF,TemperatureLowF,DewpointHighF,DewpointAvgF,DewpointLowF,HumidityHigh,HumidityAvg,HumidityLow,PressureMaxIn,PressureMinIn,WindSpeedMaxMPH,WindSpeedAvgMPH,GustSpeedMaxMPH,PrecipitationSumIn
2014-1-1,63.9,44.8,32.4,37.9,34.4,29.9,93,71,35,30.23,30.12,7,0,7,0.00
2014-1-2,65.5,46.2,33.3,40.8,36.1,31.2,94,71,35,30.20,30.05,7,0,7,0.00
2014-1-3,66.8,47.5,34.7,41.5,37.6,32.5,95,72,38,30.08,29.94,5,0,5,0.00
2014-1-4,66.0,46.4,34.1,43.1,34.2,24.8,96,68,21,30.09,29.98,9,0,9,0.00
2014-1-5,64.5,45.7,32.9,37.3,33.7,30.3,91,67,31,30.23,30.09,4,0,4,0.00
2014-1-6,61.3,45.5,35.3,37.2,33.6,31.9,90,67,35,30.30,30.16,5,0,5,0.00
2014-1-7,64.4,48.8,37.2,38.2,33.8,29.4,86,59,30,30.20,30.09,7,0,7,0.00
2014-1-8,57.9,47.2,43.1,47.7,40.1,34.0,95,77,62,30.22,30.12,7,0,7,0.00
2014-1-9,61.6,49.8,42.7,49.9,43.9,39.7,93,81,59,30.24,30.15,9,0,9,0.00
2014-1-10,62.2,49.9,43.8,43.1,41.2,39.1,86,73,49,30.21,30.16,4,0,4,0.00
2014-1-11,56.1,47.8,41.6,50.7,43.4,38.3,94,85,75,30.25,30.12,13,1,14,0.00
2014-1-12,60.2,48.4,36.8,44.2,37.4,31.4,97,70,36,30.39,30.24,15,2,15,0.00
2014-1-13,63.7,46.4,37.7,42.8,37.0,33.7,90,71,43,30.46,30.33,4,0,7,0.00
2014-1-14,66.0,45.7,32.3,42.5,37.0,29.7,96,75,40,30.49,30.34,6,0,6,0.00
2014-1-15,69.0,48.3,35.5,43.7,38.1,32.7,95,72,36,30.38,30.20,4,0,4,0.00
2014-1-16,69.4,44.9,33.4,40.0,35.6,30.7,94,74,32,30.27,30.13,5,0,5,0.01
2014-1-17,70.3,46.5,32.4,39.8,34.5,29.8,93,68,31,30.23,30.11,6,0,7,0.00
2014-1-18,68.7,46.6,30.8,36.7,33.5,28.8,94,66,28,30.19,30.06,7,0,7,0.00
2014-1-19,69.6,46.6,31.7,37.8,34.1,29.4,93,67,28,30.17,30.06,5,0,5,0.00
2014-1-20,71.8,46.8,31.0,35.5,32.1,28.7,92,63,22,30.24,30.12,4,0,4,0.00
2014-1-21,69.9,46.8,30.2,35.5,31.9,27.2,92,62,24,30.26,30.15,5,0,8,0.00
2014-1-22,66.8,43.9,31.1,34.7,31.5,27.9,91,67,26,30.17,29.92,6,0,6,0.00
2014-1-23,70.0,48.6,33.9,34.9,32.2,28.5,85,58,22,30.03,29.88,6,0,6,0.00
2014-1-24,79.0,55.0,39.3,38.6,33.4,22.8,84,52,13,30.25,30.03,12,0,12,0.00
2014-1-25,74.8,52.8,38.4,37.2,33.1,28.3,81,52,18,30.25,30.10,4,0,6,0.00
2014-1-26,67.0,47.4,38.4,36.7,34.1,31.4,81,62,30,30.15,30.02,4,0,4,0.00
2014-1-27,65.5,49.8,35.2,40.4,35.6,31.2,88,62,33,30.17,30.04,6,0,6,0.00
2014-1-28,70.3,56.8,47.8,45.3,42.1,38.9,79,60,34,30.24,30.15,5,0,5,0.00
2014-1-29,62.0,57.2,51.6,58.1,53.8,45.0,94,89,78,30.18,29.96,14,1,14,0.12
2014-1-30,64.5,55.2,47.8,52.5,48.3,40.3,96,80,44,29.96,29.81,7,0,7,0.48
2014-1-31,60.2,47.6,36.3,47.5,36.8,22.8,97,72,28,30.05,29.89,8,1,8,0.13
2014-2-1,61.5,44.5,31.3,34.8,30.6,26.3,93,63,27,30.15,30.03,6,0,6,0.00
2014-2-2,52.6,45.7,37.0,40.5,35.6,28.7,80,68,52,30.06,29.90,13,1,13,0.00
2014-2-3,58.8,47.7,36.8,39.8,37.1,33.2,89,68,45,30.06,29.97,7,1,7,0.00
2014-2-4,57.2,43.4,32.0,36.9,33.6,30.2,95,71,41,30.16,30.05,7,0,7,0.00
2014-2-5,55.5,45.0,30.8,42.3,36.1,28.7,95,73,51,30.20,30.08,11,1,11,0.02
2014-2-6,51.4,47.7,44.5,46.6,44.2,42.1,94,88,77,30.08,29.93,13,1,13,0.32
2014-2-7,51.5,49.6,47.4,49.5,47.1,44.4,94,91,85,30.11,29.99,20,2,20,0.43
2014-2-8,55.4,53.2,50.7,54.3,51.7,48.8,97,95,93,30.15,30.05,23,4,23,1.90
2014-2-9,58.0,56.3,54.6,56.5,55.3,53.8,97,96,92,30.14,30.04,16,3,16,1.27
2014-2-10,65.8,56.7,49.5,56.1,53.8,48.4,98,91,67,30.26,30.08,11,1,11,0.03
2014-2-11,65.0,54.4,45.3,55.0,50.2,44.4,98,87,64,30.23,30.14,6,0,6,0.00
2014-2-12,65.8,56.2,45.1,54.8,50.3,44.3,98,82,58,30.27,30.14,11,1,11,0.01
2014-2-13,70.8,60.2,53.3,57.8,54.2,50.4,94,81,61,30.21,30.07,5,0,8,0.00
2014-2-14,66.3,59.1,54.7,57.3,54.8,51.7,96,86,69,30.14,30.03,13,1,13,0.00
2014-2-15,62.1,55.9,51.7,55.1,52.3,49.8,94,88,77,30.03,29.92,14,1,14,0.05
2014-2-16,66.5,55.4,43.8,54.5,45.0,34.6,98,72,33,30.20,30.00,10,1,10,0.01
2014-2-17,65.3,49.4,36.8,45.8,40.3,35.3,97,74,40,30.15,30.07,9,0,9,0.00
2014-2-18,66.0,51.5,38.6,48.2,41.7,36.8,96,73,40,30.19,30.03,8,1,8,0.00
2014-2-19,65.2,54.6,44.9,51.9,43.7,31.7,93,70,31,30.18,30.05,12,1,12,0.00
2014-2-20,67.8,52.1,41.3,40.6,37.9,35.4,84,61,33,30.20,30.10,9,1,9,0.00
2014-2-21,70.3,53.0,37.9,45.2,41.0,36.0,96,68,36,30.11,29.96,8,0,8,0.00
2014-2-22,72.7,54.1,39.0,46.6,42.4,37.2,96,69,35,30.00,29.89,6,0,6,0.00
2014-2-23,75.3,55.2,39.2,49.3,43.2,37.3,96,68,34,30.01,29.92,6,0,6,0.00
2014-2-24,76.5,56.2,39.4,47.5,43.1,37.5,96,66,32,30.01,29.89,6,0,6,0.00
2014-2-25,75.5,57.4,41.5,48.3,44.5,38.2,96,67,33,29.96,29.85,9,1,9,0.00
2014-2-26,65.1,56.1,51.0,54.7,50.8,46.3,94,83,58,29.96,29.69,21,2,21,0.57
2014-2-27,66.5,56.9,50.4,54.6,50.1,46.3,95,79,52,29.90,29.60,19,2,19,0.07
2014-2-28,56.6,53.2,49.8,54.0,50.2,44.5,96,90,68,29.60,29.39,11,1,15,2.16
2014-3-1,69.3,57.9,49.4,49.7,47.1,43.4,95,70,41,29.85,29.54,24,2,24,0.02
2014-3-2,62.0,55.5,48.8,56.0,50.3,44.5,96,83,65,30.17,29.84,22,2,22,0.14
2014-3-3,59.9,54.0,48.3,54.8,51.4,47.2,98,91,79,30.17,30.05,9,0,9,0.16
2014-3-4,64.9,57.1,51.5,56.5,53.4,49.8,97,88,71,30.13,30.04,10,0,10,0.02
2014-3-5,68.5,61.5,53.2,59.0,55.8,51.8,96,83,66,30.09,29.96,9,2,11,0.44
2014-3-6,69.8,60.1,49.0,58.5,51.9,45.8,97,77,43,30.16,30.01,11,2,11,0.06
2014-3-7,72.8,56.9,46.7,48.8,45.8,41.0,95,70,36,30.15,30.06,12,1,12,0.00
2014-3-8,72.3,58.0,42.8,52.4,48.3,40.9,96,73,45,30.20,30.08,11,1,11,0.00
2014-3-9,71.3,62.4,56.0,56.5,53.4,50.8,88,74,51,30.20,30.05,6,0,6,0.00
2014-3-10,67.3,60.4,53.1,56.8,48.4,36.2,95,67,34,30.22,30.05,15,2,15,0.24
2014-3-11,73.1,59.1,47.3,44.0,34.4,18.0,72,44,15,30.17,29.99,20,4,20,0.00
2014-3-12,75.9,63.6,48.6,41.8,32.2,22.8,58,32,16,30.16,29.98,15,4,17,0.00
2014-3-13,78.5,59.6,44.1,42.9,36.9,27.5,76,48,17,30.05,29.92,11,1,11,0.00
2014-3-14,75.6,59.6,46.0,48.4,42.5,36.7,79,56,30,30.19,30.00,8,1,8,0.00
2014-3-15,81.8,62.1,47.4,48.3,44.1,35.8,88,58,21,30.29,30.18,7,0,7,0.00
2014-3-16,82.5,63.3,45.3,52.8,45.6,39.0,93,58,27,30.30,30.11,10,1,10,0.00
2014-3-17,69.4,58.4,48.0,47.5,40.4,33.6,82,54,28,30.14,29.93,14,2,14,0.00
2014-3-18,72.2,56.3,45.8,41.6,35.4,32.3,67,48,24,29.96,29.88,13,2,13,0.00
2014-3-19,77.8,59.0,41.6,46.3,41.7,38.0,91,58,25,30.09,29.95,10,1,10,0.00
2014-3-20,79.5,61.2,47.5,49.8,45.5,41.7,90,61,27,30.04,29.88,7,0,7,0.00
2014-3-21,79.3,60.3,45.1,50.2,44.4,32.9,90,62,19,29.95,29.85,10,1,10,0.00
2014-3-22,79.2,59.8,44.1,49.1,44.6,34.2,95,64,22,30.06,29.93,8,0,8,0.00
2014-3-23,78.8,60.1,44.0,49.1,44.5,38.4,92,61,25,30.15,30.03,9,0,9,0.00
2014-3-24,83.6,62.6,44.4,50.4,43.8,34.7,94,58,18,30.13,29.96,5,0,7,0.00
2014-3-25,65.5,56.8,47.6,55.0,45.8,35.6,86,67,53,29.99,29.81,12,2,12,0.02
2014-3-26,58.6,53.4,49.6,54.2,49.0,46.1,93,85,67,29.94,29.79,16,2,16,0.29
2014-3-27,63.9,55.3,49.6,51.4,47.9,44.7,90,77,52,30.14,29.94,13,2,14,0.00
2014-3-28,69.2,59.8,51.1,52.2,49.5,48.0,90,70,49,30.19,30.07,13,2,14,0.00
2014-3-29,58.9,55.5,48.1,54.6,51.5,46.5,96,87,72,30.11,29.97,10,1,10,0.00
2014-3-30,64.1,53.4,43.7,50.3,44.3,40.5,97,74,48,30.10,29.99,15,2,15,0.00
2014-3-31,58.6,49.2,43.6,45.6,43.6,39.8,96,82,50,30.07,29.80,16,2,24,0.28
2014-4-1,51.5,46.1,43.5,47.9,44.5,42.4,96,94,79,29.97,29.83,8,1,17,1.69
2014-4-2,63.1,51.4,42.4,47.1,44.0,41.3,97,78,49,30.07,29.89,5,0,7,0.06
2014-4-3,67.7,54.4,43.5,47.8,43.4,36.9,95,70,35,30.11,29.99,13,2,13,0.00
2014-4-4,61.2,52.6,46.2,50.0,46.2,43.2,92,80,55,30.03,29.97,11,0,11,0.04
2014-4-5,72.8,55.2,39.4,51.2,45.0,38.0,97,72,36,30.15,30.03,10,1,10,0.00
2014-4-6,80.3,62.0,44.1,53.3,48.7,42.7,96,67,32,30.20,30.05,11,1,11,0.00
2014-4-7,85.0,66.4,48.5,56.9,52.9,46.9,96,67,33,30.16,30.04,8,1,8,0.00
2014-4-8,86.8,69.2,52.8,59.6,55.1,50.8,95,65,36,30.11,29.97,6,0,6,0.00
2014-4-9,85.8,68.2,54.0,58.0,51.9,40.9,92,61,22,30.03,29.92,8,1,9,0.00
2014-4-10,86.2,67.0,48.5,57.3,50.9,46.0,94,61,25,29.99,29.84,7,0,7,0.00
2014-4-11,83.2,63.0,51.3,60.2,52.2,49.1,94,72,34,29.89,29.77,9,1,9,0.00
2014-4-12,76.4,60.6,49.6,56.1,51.3,47.4,93,73,47,29.89,29.77,16,2,16,0.00
2014-4-13,81.6,63.6,50.1,56.6,47.0,37.4,91,62,21,30.02,29.89,10,2,15,0.00
2014-4-14,83.2,65.1,47.5,55.9,51.1,44.1,95,64,33,30.08,29.95,10,1,10,0.00
2014-4-15,85.2,67.1,50.8,55.6,50.7,42.1,88,60,23,29.99,29.82,9,1,9,0.00
2014-4-16,82.6,67.3,52.0,55.5,50.1,41.2,95,60,25,29.87,29.76,12,1,12,0.00
2014-4-17,85.1,68.3,52.9,56.7,52.7,48.4,86,61,31,29.80,29.73,14,2,14,0.00
2014-4-18,84.8,67.8,56.0,56.7,51.5,48.4,82,58,31,29.86,29.77,10,1,10,0.00
2014-4-19,78.7,63.0,51.1,53.5,48.0,38.7,86,61,25,30.07,29.86,13,3,13,0.00
2014-4-20,87.2,66.8,49.2,54.8,48.1,36.1,96,59,18,30.11,29.98,11,1,11,0.00
2014-4-21,76.0,65.1,53.8,49.3,42.2,23.3,76,47,15,30.01,29.88,15,2,15,0.00
2014-4-22,69.3,59.3,50.5,49.6,43.1,33.0,84,58,27,30.07,29.90,14,2,14,0.00
2014-4-23,74.6,58.8,42.1,48.7,42.0,36.2,93,59,26,30.11,30.01,7,1,11,0.00
2014-4-24,73.3,61.3,50.1,55.5,50.4,44.4,89,69,38,30.07,29.91,13,2,13,0.02
2014-4-25,58.3,53.9,48.3,55.2,50.7,46.7,95,89,78,29.94,29.75,7,1,9,0.95
2014-4-26,65.0,54.0,42.9,50.4,44.9,40.3,97,74,41,30.04,29.82,15,2,15,0.00
2014-4-27,68.8,57.2,48.4,51.0,46.9,40.7,86,70,38,30.09,30.01,11,1,11,0.00
2014-4-28,77.7,62.1,45.3,53.1,44.1,33.3,95,58,21,30.20,30.09,12,1,12,0.00
2014-4-29,90.8,67.8,53.6,53.8,46.4,38.8,73,50,19,30.17,30.01,8,1,9,0.00
2014-4-30,94.5,73.0,51.8,55.8,48.9,40.9,92,52,17,30.09,29.96,4,0,7,0.00
2014-5-1,94.6,74.8,55.5,56.5,49.9,41.9,90,49,17,30.08,30.00,5,0,7,0.00
2014-5-2,90.9,72.1,53.6,51.8,46.3,34.0,81,46,14,30.03,29.91,8,1,11,0.00
2014-5-3,75.5,63.9,53.9,53.7,49.6,44.7,89,62,36,29.98,29.88,20,4,20,0.00
2014-5-4,75.2,62.8,52.3,53.7,49.6,46.3,84,64,39,30.01,29.92,14,2,14,0.00
2014-5-5,72.2,61.1,53.4,53.1,48.2,43.0,95,66,36,29.99,29.85,17,2,17,0.12
2014-5-6,77.3,61.0,52.0,52.8,47.9,36.1,96,69,27,29.89,29.77,12,1,12,0.01
2014-5-7,78.8,62.9,50.0,51.6,48.1,42.0,89,62,28,29.94,29.82,12,2,13,0.00
2014-5-8,69.3,61.9,54.8,57.4,51.2,45.0,90,69,48,30.05,29.93,17,4,17,0.00
2014-5-9,77.5,64.9,55.1,57.3,51.8,45.3,93,66,33,30.10,30.00,13,2,13,0.00
2014-5-10,74.4,61.2,46.9,48.4,41.7,32.7,92,54,23,30.07,29.96,22,2,22,0.00
2014-5-11,81.0,67.0,53.4,44.5,38.4,34.5,59,37,21,30.08,29.94,17,3,17,0.00
2014-5-12,90.8,70.5,52.6,49.8,40.3,28.4,66,40,11,30.09,29.98,5,1,8,0.00
2014-5-13,94.8,74.2,52.2,53.2,47.2,37.8,87,46,15,30.12,30.02,9,1,9,0.00
2014-5-14,98.9,78.0,56.2,55.2,49.1,36.4,80,43,12,30.10,29.97,5,0,8,0.00
2014-5-15,98.8,78.8,57.1,57.7,46.1,26.4,82,40,9,30.06,29.96,7,1,7,0.00
2014-5-16,93.3,74.6,59.1,52.0,44.4,36.4,55,37,15,30.01,29.87,14,2,14,0.00
2014-5-17,82.7,69.3,59.9,54.1,50.7,46.1,69,53,35,29.92,29.83,14,3,14,0.00
2014-5-18,81.5,67.4,57.1,52.2,48.9,44.3,69,53,28,29.92,29.83,14,2,14,0.00
2014-5-19,75.1,63.5,55.8,50.7,48.6,43.7,75,60,34,29.90,29.82,20,3,20,0.00
2014-5-20,74.6,61.9,51.0,54.2,50.1,47.1,88,67,42,29.98,29.87,8,1,8,0.00
2014-5-21,87.3,70.4,52.0,56.4,52.2,47.2,92,57,26,29.94,29.81,11,1,11,0.00
2014-5-22,89.3,72.2,55.2,57.1,53.2,48.3,86,56,26,29.93,29.83,10,2,10,0.00
2014-5-23,94.2,74.5,57.2,60.6,55.5,50.6,81,55,27,29.97,29.80,10,2,10,0.00
2014-5-24,95.7,75.9,60.6,60.5,55.8,51.4,79,53,25,29.91,29.79,10,1,10,0.00
2014-5-25,99.5,78.2,59.5,58.4,53.7,47.5,78,47,19,29.91,29.79,9,1,9,0.00
2014-5-26,96.5,77.8,59.1,56.6,50.4,44.3,73,42,18,29.95,29.84,13,1,13,0.00
2014-5-27,91.8,74.2,60.3,51.6,47.7,40.9,59,42,18,29.98,29.86,11,2,11,0.00
2014-5-28,81.5,69.5,55.3,49.4,36.5,21.1,77,35,13,30.02,29.89,15,2,15,0.00
2014-5-29,89.5,72.0,55.1,44.4,38.6,24.0,57,33,10,29.91,29.81,9,1,9,0.00
2014-5-30,85.0,69.0,54.1,50.2,41.6,19.8,74,41,11,29.89,29.82,13,3,13,0.00
2014-5-31,89.2,68.0,51.2,53.0,47.0,34.7,90,55,15,29.93,29.82,7,1,9,0.00
2014-6-1,94.4,74.1,52.1,53.3,46.4,32.5,81,45,14,29.85,29.71,9,1,9,0.00
2014-6-2,83.3,68.4,57.6,52.8,48.6,36.2,76,52,19,29.84,29.74,15,3,15,0.00
2014-6-3,88.5,68.9,51.3,54.3,49.8,42.9,92,57,22,29.91,29.77,10,2,10,0.00
2014-6-4,99.8,76.8,53.8,56.9,51.9,43.3,90,49,16,29.84,29.71,8,1,8,0.00
2014-6-5,96.2,74.9,62.9,57.3,50.8,47.8,62,45,23,29.79,29.67,12,1,12,0.00
2014-6-6,95.5,75.7,59.8,59.0,53.0,47.6,72,48,25,29.78,29.67,12,2,12,0.00
2014-6-7,102.4,77.9,57.8,62.0,55.0,43.1,81,50,14,29.78,29.65,8,1,8,0.00
2014-6-8,105.2,84.5,63.4,59.7,53.8,45.7,77,41,15,29.77,29.64,7,1,11,0.00
2014-6-9,107.7,87.0,64.6,60.9,53.2,30.4,77,40,7,29.70,29.57,6,1,11,0.00
2014-6-10,104.1,81.1,63.2,60.7,55.7,48.8,76,46,17,29.70,29.57,12,2,12,0.00
2014-6-11,85.5,69.4,58.1,57.4,55.3,52.6,87,64,36,29.81,29.70,16,4,16,0.00
2014-6-12,84.5,67.3,55.0,53.6,51.2,47.6,85,60,28,29.91,29.81,16,4,16,0.00
2014-6-13,88.2,69.5,55.2,51.8,46.6,33.6,79,50,16,29.93,29.84,12,1,12,0.00
2014-6-14,89.3,71.2,56.5,51.0,46.6,34.5,77,46,15,29.88,29.77,10,1,10,0.00
2014-6-15,84.1,71.6,58.0,53.5,50.1,46.1,65,49,28,29.76,29.68,12,4,14,0.00
2014-6-16,79.2,66.7,57.2,51.2,48.5,45.9,72,54,34,29.83,29.72,14,4,17,0.00
2014-6-17,84.3,68.9,53.9,48.0,43.6,34.3,74,45,19,29.90,29.81,8,1,14,0.00
2014-6-18,95.0,75.1,53.9,47.7,42.5,33.0,70,37,13,29.91,29.82,9,1,0,0.00
2014-6-19,95.8,78.7,55.5,52.0,42.2,23.7,62,31,9,29.94,29.86,10,2,12,0.00
2014-6-20,96.9,78.5,59.6,53.2,47.8,33.9,73,39,16,29.92,29.80,8,1,0,0.00
2014-6-21,93.4,76.2,61.8,55.2,47.1,34.7,59,37,21,29.84,29.75,12,2,15,0.00
2014-6-22,93.5,73.5,56.2,54.3,50.3,43.2,76,48,19,29.88,29.77,10,2,0,0.00
2014-6-23,97.0,75.7,55.3,55.8,52.5,44.6,85,50,18,29.89,29.79,10,2,0,0.00
2014-6-24,96.7,77.7,61.9,57.1,52.3,48.9,64,44,20,29.91,29.82,14,2,14,0.00
2014-6-25,84.2,72.3,62.9,60.7,56.9,54.0,74,59,43,29.90,29.84,13,3,15,0.00
2014-6-26,83.6,71.4,62.7,58.9,55.3,49.4,80,60,33,29.93,29.85,12,3,15,0.00
2014-6-27,90.0,73.7,59.4,62.4,57.5,50.0,86,61,28,29.91,29.81,10,2,12,0.00
2014-6-28,94.1,76.0,59.3,59.5,54.6,35.6,87,54,14,29.90,29.79,9,2,0,0.00
2014-6-29,99.7,80.7,60.5,58.9,53.9,45.8,77,44,18,29.89,29.74,7,1,0,0.00
2014-6-30,107.9,86.1,64.2,59.7,55.0,46.7,76,40,14,29.79,29.64,9,1,0,0.00
2014-7-1,95.5,79.7,66.1,56.4,51.8,42.6,65,41,17,29.76,29.68,13,3,14,0.00
2014-7-2,96.3,75.9,59.5,60.7,56.3,52.1,81,54,25,29.81,29.72,11,3,12,0.00
2014-7-3,95.9,77.2,62.4,62.5,57.4,53.8,75,53,30,29.87,29.77,9,2,0,0.00
2014-7-4,98.3,79.6,60.3,59.5,50.1,26.6,79,43,9,29.90,29.82,11,2,15,0.00
2014-7-5,101.5,79.2,60.6,56.4,46.4,25.3,67,38,8,30.01,29.90,7,2,0,0.00
2014-7-6,103.9,81.6,57.6,53.2,46.9,34.5,69,35,11,29.98,29.83,8,1,0,0.00
2014-7-7,96.5,80.6,62.7,57.4,51.5,45.6,64,38,22,29.86,29.75,8,1,0,0.00
2014-7-8,100.8,83.0,70.7,59.1,54.2,46.3,59,40,16,29.85,29.76,13,2,13,0.00
2014-7-9,95.3,77.3,62.7,61.4,57.2,54.1,78,53,26,29.89,29.75,10,2,0,0.00
2014-7-10,90.5,74.0,61.2,59.9,56.8,51.2,82,58,31,29.88,29.77,12,3,13,0.00
2014-7-11,88.6,74.6,62.4,57.5,55.7,51.6,78,55,32,29.99,29.87,12,3,13,0.00
2014-7-12,95.0,75.1,59.2,59.4,56.2,51.9,85,56,28,30.02,29.88,9,2,0,0.00
2014-7-13,102.8,81.2,60.1,63.5,58.4,54.7,84,52,23,29.96,29.77,6,1,0,0.00
2014-7-14,107.0,86.5,67.6,63.1,57.7,41.1,78,43,13,29.83,29.76,12,2,13,0.00
2014-7-15,95.7,81.3,69.9,64.1,58.5,54.7,62,47,29,29.93,29.82,11,3,12,0.00
2014-7-16,88.6,75.2,66.7,62.4,59.5,57.2,74,59,41,29.95,29.84,12,3,16,0.00
2014-7-17,86.0,72.0,63.2,62.5,59.2,56.6,83,66,44,29.97,29.84,12,3,14,0.00
2014-7-18,88.2,73.0,61.4,61.2,57.8,55.8,84,62,36,29.96,29.83,11,3,12,0.00
2014-7-19,96.5,76.0,60.2,62.0,58.1,55.4,86,58,29,29.91,29.80,12,2,14,0.00
2014-7-20,82.0,71.7,66.1,61.3,58.1,53.8,77,63,38,29.91,29.83,11,2,12,0.00
2014-7-21,86.2,73.9,64.9,62.2,59.6,55.5,83,63,36,30.00,29.90,11,3,13,0.00
2014-7-22,89.3,73.0,63.0,62.6,59.1,57.3,84,64,38,30.05,29.94,13,2,15,0.00
2014-7-23,90.2,74.0,59.2,61.2,56.6,45.8,91,60,23,30.10,29.94,8,1,0,0.00
2014-7-24,96.3,76.5,61.0,60.7,54.7,41.6,88,54,17,29.98,29.75,8,1,12,0.00
2014-7-25,104.6,83.2,61.3,58.1,50.3,31.0,77,39,9,29.84,29.74,6,1,0,0.00
2014-7-26,105.4,85.6,62.9,56.3,48.7,36.3,65,33,10,29.89,29.80,8,1,0,0.00
2014-7-27,105.2,85.8,73.7,58.9,53.0,42.2,50,35,13,29.93,29.82,9,1,0,0.00
2014-7-28,97.3,80.4,65.4,58.6,52.3,37.4,64,41,14,29.98,29.88,13,3,15,0.00
2014-7-29,101.8,83.5,68.0,58.0,51.8,42.3,60,36,15,30.00,29.87,9,2,0,0.00
2014-7-30,101.7,84.1,68.4,61.7,56.4,49.8,65,42,19,29.94,29.83,8,1,0,0.00
2014-7-31,105.2,85.1,66.7,61.1,57.0,52.6,69,42,18,29.91,29.76,8,1,0,0.00
2014-8-1,110.0,87.7,65.8,58.6,52.7,40.1,70,37,10,29.84,29.73,9,1,0,0.00
2014-8-2,99.1,81.5,66.4,60.1,56.2,49.3,68,45,21,29.86,29.76,12,2,12,0.00
2014-8-3,85.5,72.7,61.1,62.2,57.9,55.6,84,62,40,29.91,29.82,8,3,0,0.00
2014-8-4,79.9,70.8,62.6,65.2,58.7,55.6,80,66,51,29.94,29.87,8,1,0,0.00
2014-8-5,77.1,73.0,68.4,67.6,64.2,59.3,81,74,63,30.03,29.91,4,0,0,0.00
2014-8-6,95.8,80.6,68.9,68.3,64.5,58.8,90,62,35,29.98,29.85,10,1,0,0.00
2014-8-7,96.4,79.5,66.0,64.6,59.7,56.3,75,53,32,29.91,29.76,11,2,0,0.00
2014-8-8,95.6,78.5,63.5,62.4,57.8,53.1,76,52,27,29.87,29.75,11,2,0,0.00
2014-8-9,92.0,75.2,62.5,58.7,55.1,51.8,76,52,29,29.90,29.79,11,3,0,0.00
2014-8-10,90.1,72.2,57.4,59.3,55.0,49.6,88,59,30,29.96,29.85,10,2,0,0.00
2014-8-11,100.0,78.9,61.0,59.3,54.3,45.1,83,48,21,29.90,29.78,8,2,0,0.00
2014-8-12,87.0,73.4,61.8,58.3,54.6,47.9,79,55,32,29.94,29.83,11,2,12,0.00
2014-8-13,89.6,73.4,58.5,61.0,57.5,54.3,86,61,34,29.94,29.84,10,2,12,0.00
2014-8-14,92.9,77.8,62.0,60.5,55.7,44.9,81,51,21,29.91,29.81,9,2,0,0.00
2014-8-15,98.3,79.6,63.2,58.8,53.4,41.8,72,45,21,29.95,29.85,8,1,0,0.00
2014-8-16,99.3,79.0,61.1,57.5,52.1,39.3,73,45,17,29.98,29.87,7,1,0,0.00
2014-8-17,98.0,77.2,58.3,56.3,51.2,38.0,76,46,15,29.97,29.81,7,1,0,0.00
2014-8-18,93.0,73.9,58.5,59.4,56.7,51.9,89,59,28,29.84,29.69,10,2,0,0.00
2014-8-19,85.7,70.4,60.0,60.4,57.9,55.6,86,67,38,29.82,29.70,11,3,0,0.00
2014-8-20,79.6,69.4,61.7,60.5,58.5,57.3,87,70,50,29.89,29.78,15,4,15,0.00
2014-8-21,91.1,74.7,58.7,61.2,58.5,55.8,91,61,34,29.93,29.82,9,1,0,0.00
2014-8-22,88.1,74.1,63.6,60.3,58.1,55.8,81,60,35,29.88,29.78,13,3,14,0.00
2014-8-23,94.3,73.8,57.4,59.3,55.1,46.8,90,58,26,29.91,29.75,7,1,0,0.00
2014-8-24,92.2,74.2,61.0,59.2,56.1,52.5,81,57,27,29.85,29.69,9,2,0,0.00
2014-8-25,86.8,70.9,60.3,59.3,56.7,55.2,85,63,37,29.88,29.77,15,3,18,0.00
2014-8-26,92.8,74.3,58.9,59.7,56.8,54.5,86,58,32,29.97,29.84,7,2,0,0.00
2014-8-27,97.5,79.5,62.5,59.3,54.7,46.2,75,47,19,30.03,29.90,8,1,0,0.00
2014-8-28,100.1,80.4,63.4,59.4,55.2,48.5,70,46,18,30.00,29.83,7,1,0,0.00
2014-8-29,92.7,76.1,62.3,61.0,57.8,54.0,83,56,31,29.89,29.77,6,1,0,0.00
2014-8-30,98.6,80.0,63.7,59.6,53.8,45.2,69,44,17,29.85,29.74,11,2,0,0.00
2014-8-31,97.9,78.9,62.9,58.2,54.5,48.4,73,47,19,29.88,29.74,6,1,0,0.00
2014-9-1,102.9,81.1,60.9,57.1,53.5,45.4,80,44,16,29.80,29.66,5,0,0,0.00
2014-9-2,94.2,78.0,64.1,58.2,54.9,50.0,75,47,26,29.77,29.66,11,2,13,0.00
2014-9-3,98.2,74.8,57.4,60.8,57.2,52.8,92,60,22,29.76,29.59,6,1,0,0.00
2014-9-4,99.1,77.6,59.1,60.7,54.1,40.0,90,53,14,29.71,29.61,7,1,0,0.00
2014-9-5,94.6,74.7,58.9,59.1,56.7,52.7,88,58,27,29.84,29.71,7,1,0,0.00
2014-9-6,96.0,75.6,60.4,57.3,53.3,35.9,80,52,20,29.91,29.78,7,1,0,0.00
2014-9-7,93.4,74.0,57.7,54.2,50.9,40.7,81,50,20,29.84,29.70,6,1,0,0.00
2014-9-8,85.1,68.6,56.9,55.3,52.3,42.7,86,60,23,29.87,29.76,11,2,14,0.00
2014-9-9,91.6,70.0,53.4,56.1,50.9,40.6,91,58,18,29.96,29.82,7,0,0,0.00
2014-9-10,100.0,75.7,54.9,58.0,50.9,42.0,91,50,15,29.92,29.76,6,0,0,0.00
2014-9-11,101.5,78.9,57.9,53.4,49.6,44.2,69,41,15,29.87,29.74,4,0,0,0.00
2014-9-12,105.6,81.3,59.5,55.4,50.5,45.9,73,40,14,29.84,29.71,5,0,0,0.00
2014-9-13,104.3,82.6,62.2,58.0,54.1,47.2,75,43,16,29.78,29.66,6,0,0,0.00
2014-9-14,101.1,79.3,62.9,58.2,54.9,52.0,74,47,20,29.81,29.71,7,1,0,0.00
2014-9-15,93.9,77.2,64.6,57.5,52.2,48.2,64,44,22,29.86,29.75,9,2,0,0.00
2014-9-16,95.5,74.8,59.3,56.8,52.7,45.1,79,51,20,29.89,29.74,7,1,0,0.00
2014-9-17,92.0,75.0,60.1,61.1,52.9,45.7,73,50,25,29.78,29.67,11,2,14,0.00
2014-9-18,85.2,74.6,67.0,65.0,61.8,57.0,84,66,42,29.85,29.76,7,1,0,0.00
2014-9-19,89.1,72.8,60.7,62.0,59.5,55.3,92,67,33,29.86,29.76,9,1,0,0.00
2014-9-20,90.2,74.4,61.6,63.2,59.8,57.1,89,63,38,29.89,29.78,12,1,15,0.00
2014-9-21,81.0,70.3,63.1,60.2,58.6,57.2,83,68,48,29.95,29.83,8,2,0,0.00
2014-9-22,91.4,72.3,58.7,61.9,58.4,54.5,93,66,33,30.00,29.87,5,1,0,0.00
2014-9-23,90.5,74.2,60.9,61.8,56.5,52.3,82,57,32,29.96,29.83,7,2,0,0.00
2014-9-24,86.7,72.8,63.8,63.7,61.8,56.5,90,71,38,29.94,29.79,10,2,13,0.00
2014-9-25,74.4,65.4,58.4,62.7,58.1,54.4,94,78,54,30.01,29.85,12,1,12,0.62
2014-9-26,79.9,65.1,53.0,59.1,54.5,50.1,96,72,37,29.97,29.84,9,1,12,0.00
2014-9-27,80.6,67.0,55.9,59.4,55.5,51.9,96,70,38,29.90,29.75,7,1,0,0.17
2014-9-28,75.3,64.7,57.1,59.4,56.7,54.4,93,76,53,29.92,29.78,6,0,0,0.00
2014-9-29,83.3,67.3,53.7,60.7,56.4,52.0,95,72,40,30.00,29.88,5,1,0,0.00
2014-9-30,84.1,68.9,56.5,59.4,56.6,51.1,93,68,40,29.93,29.79,8,1,0,0.00
2014-10-1,85.7,70.1,58.0,50.3,45.2,40.4,71,44,21,29.90,29.80,9,2,13,0.00
2014-10-2,93.0,63.5,50.0,52.4,48.2,42.5,89,63,19,30.04,29.89,2,0,0,0.00
2014-10-3,97.8,72.8,53.2,54.5,48.9,40.1,90,52,14,30.09,29.97,5,0,0,0.00
2014-10-4,98.3,73.2,53.3,55.0,50.1,41.8,90,53,16,30.03,29.88,5,0,0,0.00
2014-10-5,97.3,72.3,54.5,55.8,52.0,47.0,90,56,19,29.95,29.82,4,0,0,0.00
2014-10-6,99.1,75.9,55.6,55.4,52.0,46.7,89,51,18,29.91,29.78,5,0,0,0.00
2014-10-7,97.2,73.7,56.0,56.1,52.5,49.4,83,53,22,29.89,29.75,6,0,0,0.00
2014-10-8,96.6,73.5,54.4,56.6,49.8,39.7,93,52,16,29.87,29.76,7,0,0,0.00
2014-10-9,92.2,71.4,55.1,54.5,49.5,43.7,74,50,20,29.91,29.81,6,1,0,0.00
2014-10-10,90.8,71.2,54.2,56.5,52.8,49.5,91,57,26,30.01,29.89,7,0,0,0.00
2014-10-11,91.8,69.2,55.0,57.1,54.1,51.2,90,63,28,30.02,29.90,6,0,0,0.00
2014-10-12,89.5,71.6,59.5,55.7,43.1,33.0,83,42,14,29.97,29.85,13,2,17,0.00
2014-10-13,91.5,70.4,51.8,50.2,45.2,38.6,81,47,20,29.96,29.83,8,1,0,0.00
2014-10-14,73.8,65.1,55.8,57.3,54.0,44.1,89,68,51,29.89,29.78,14,2,15,0.00
2014-10-15,73.5,64.7,58.6,60.3,56.3,52.6,94,75,51,30.02,29.83,7,1,0,0.12
2014-10-16,76.5,63.7,52.5,56.3,52.5,47.3,95,70,44,30.02,29.89,5,1,0,0.00
2014-10-17,74.5,61.6,51.7,52.6,50.0,47.1,88,68,43,29.97,29.90,7,1,0,0.00
2014-10-18,81.5,63.8,51.5,54.7,52.1,49.1,93,69,37,29.97,29.84,7,0,0,0.00
2014-10-19,83.2,65.6,50.1,59.3,54.1,47.9,94,70,39,29.91,29.80,6,1,0,0.00
2014-10-20,71.8,63.7,55.7,59.5,55.5,48.6,94,76,52,30.02,29.85,12,2,16,0.00
2014-10-21,72.2,58.4,46.9,53.8,47.9,40.8,96,71,35,30.09,29.97,9,1,0,0.00
2014-10-22,77.8,60.5,47.1,50.0,46.8,44.2,94,65,32,30.06,29.97,4,0,0,0.00
2014-10-23,77.0,64.7,56.9,56.4,52.2,46.4,89,65,46,30.05,29.94,9,1,0,0.00
2014-10-24,78.3,62.6,49.0,55.9,53.0,47.3,96,74,44,29.99,29.83,7,1,0,0.00
2014-10-25,71.5,62.3,57.4,58.5,55.6,52.7,92,79,57,30.11,29.89,13,1,16,0.00
2014-10-26,70.9,58.4,47.9,56.1,46.5,37.1,96,69,31,30.14,30.00,10,1,13,0.00
2014-10-27,70.0,49.6,41.2,45.0,42.2,38.9,93,77,35,30.04,29.97,1,0,0,0.00
2014-10-28,79.3,57.9,43.7,49.8,45.3,41.8,96,68,27,30.11,30.02,5,0,0,0.00
2014-10-29,81.7,61.8,47.1,52.6,48.3,44.6,94,66,33,30.11,29.96,4,0,0,0.00
2014-10-30,80.3,66.1,50.7,56.4,50.9,48.3,94,63,34,29.95,29.83,7,1,0,0.00
2014-10-31,67.1,59.8,55.7,59.2,55.7,52.9,94,86,67,29.88,29.69,6,0,0,0.00
2014-11-1,66.4,56.5,48.0,54.1,50.0,43.3,95,81,45,30.02,29.67,10,1,12,0.00
2014-11-2,67.8,53.0,42.3,48.3,43.3,38.0,96,73,34,30.14,30.02,8,1,0,0.00
2014-11-3,69.0,51.3,39.4,46.5,42.3,37.6,96,75,37,30.26,30.13,6,0,0,0.00
2014-11-4,70.8,54.0,41.3,47.9,44.7,39.7,96,74,41,30.33,30.21,5,0,0,0.00
2014-11-5,74.9,57.1,44.0,51.3,47.6,42.4,96,74,41,30.24,30.08,6,0,0,0.00
2014-11-6,79.3,60.0,48.6,53.4,50.2,46.4,95,74,37,30.22,30.13,5,0,0,0.00
2014-11-7,77.4,58.8,45.6,54.8,50.1,43.9,96,76,45,30.21,30.06,6,0,0,0.00
2014-11-8,78.5,60.5,47.7,55.1,50.8,45.5,95,74,42,30.13,29.99,4,0,0,0.00
2014-11-9,79.8,60.6,47.0,55.1,51.0,45.4,97,75,41,30.01,29.80,6,0,0,0.00
2014-11-10,77.2,58.5,46.1,55.2,50.0,44.5,96,77,42,29.83,29.75,5,0,0,0.00
2014-11-11,63.9,57.6,49.9,53.5,50.5,47.7,96,78,63,29.95,29.80,10,1,0,0.00
2014-11-12,64.7,56.8,47.4,51.4,48.2,44.6,93,74,55,30.02,29.94,8,0,0,0.00
2014-11-13,61.3,57.5,54.3,58.9,55.5,50.7,96,93,80,30.04,29.94,9,1,12,0.00
2014-11-14,65.7,55.8,49.8,56.8,53.2,48.4,98,91,69,30.08,30.02,6,0,0,0.00
2014-11-15,66.8,54.3,45.6,54.6,49.6,44.5,97,86,60,30.17,30.05,5,0,0,0.00
2014-11-16,60.9,51.1,40.8,50.5,41.3,33.1,93,70,48,30.27,30.14,10,1,0,0.00
2014-11-17,65.2,48.6,37.6,43.6,39.8,36.3,96,75,37,30.27,30.12,5,0,0,0.00
2014-11-18,62.2,48.5,36.7,44.7,40.6,35.2,96,76,45,30.19,30.06,8,0,0,0.00
2014-11-19,59.7,51.7,45.9,53.6,48.9,43.1,96,90,72,30.14,30.01,5,0,0,0.00
2014-11-20,54.5,52.8,49.7,53.4,51.8,48.6,97,96,95,30.13,29.97,4,0,0,0.00
2014-11-21,58.2,53.4,49.3,52.6,51.2,48.5,97,92,81,30.13,30.02,3,0,0,0.00
2014-11-22,58.2,53.9,48.9,55.6,51.9,47.5,97,93,87,30.25,30.03,14,2,17,0.00
2014-11-23,58.2,50.1,41.4,52.5,45.6,39.8,97,86,56,30.33,30.23,6,0,0,0.00
2014-11-24,63.9,48.2,37.5,48.2,41.6,36.5,98,80,47,30.40,30.31,4,0,0,0.00
2014-11-25,65.4,51.8,39.8,48.4,44.4,38.5,97,78,49,30.49,30.35,4,0,0,0.00
2014-11-26,69.3,50.6,38.2,50.3,44.5,36.9,98,82,50,30.35,30.20,4,0,0,0.01
2014-11-27,71.9,53.0,42.2,52.5,47.0,40.3,97,82,49,30.21,30.04,3,0,0,0.00
2014-11-28,66.4,50.8,37.5,51.9,45.2,36.2,97,83,49,30.05,29.82,6,0,0,0.25
2014-11-29,59.2,54.6,52.1,55.1,51.7,48.8,95,90,75,29.88,29.75,7,0,15,0.63
2014-11-30,56.1,54.0,52.4,54.1,52.3,51.1,97,94,88,30.05,29.75,7,0,0,0.22
2014-12-1,66.3,56.3,49.5,58.0,53.5,48.4,98,91,73,30.15,29.97,4,0,0,0.01
2014-12-2,57.7,54.4,51.8,56.5,53.5,50.7,98,97,95,29.97,29.71,13,1,15,0.54
2014-12-3,64.5,59.7,57.3,59.9,58.0,56.2,97,94,81,29.89,29.71,22,3,27,2.67
2014-12-4,68.9,59.5,53.8,60.8,56.3,52.4,98,90,64,30.02,29.88,8,1,0,0.04
2014-12-5,66.7,59.6,53.6,58.7,55.9,52.6,97,88,73,30.08,29.97,10,1,15,0.15
2014-12-6,69.6,60.0,52.4,60.0,56.5,51.1,96,89,68,30.23,30.08,6,0,0,0.09
2014-12-7,64.3,54.4,48.1,56.1,51.7,47.3,98,91,72,30.22,30.12,3,0,0,0.00
2014-12-8,65.5,54.5,49.4,52.3,50.1,48.2,98,87,55,30.19,30.12,4,0,0,0.01
2014-12-9,61.0,53.3,48.7,54.0,50.3,47.4,97,90,75,30.21,30.07,3,0,0,0.00
2014-12-10,60.1,54.8,48.4,53.4,51.4,47.3,97,89,63,30.08,29.68,13,2,17,0.00
2014-12-11,63.2,56.0,49.8,56.7,51.9,48.3,98,87,65,29.73,29.51,25,4,25,3.04
2014-12-12,53.7,49.7,47.3,51.9,48.5,46.8,99,96,81,30.08,29.63,7,0,0,0.85
2014-12-13,54.9,49.1,42.0,50.5,46.7,40.9,98,92,74,30.22,30.07,6,0,0,0.00
2014-12-14,54.1,48.0,43.3,47.4,45.1,42.5,98,90,72,30.16,30.01,6,0,0,0.01
2014-12-15,53.9,49.7,47.9,48.4,47.3,46.3,96,91,76,30.04,29.86,13,1,16,0.90
2014-12-16,62.4,54.1,48.1,52.1,48.9,46.6,96,84,62,29.97,29.81,15,2,18,0.75
2014-12-17,56.4,51.5,47.8,51.2,49.1,46.8,97,92,80,30.10,29.91,10,1,14,0.13
2014-12-18,61.3,52.4,48.3,50.5,48.3,46.8,97,87,65,30.19,30.08,7,0,12,0.01
2014-12-19,55.0,52.0,49.8,51.6,49.3,46.7,97,91,75,30.22,30.09,11,1,0,0.94
2014-12-20,57.8,54.7,52.2,54.3,52.5,50.6,97,93,87,30.25,30.13,8,1,0,0.01
2014-12-21,64.5,57.7,50.8,59.3,55.1,49.8,98,91,82,30.28,30.21,5,0,0,0.00
2014-12-22,59.7,54.7,48.3,56.5,53.2,47.4,98,95,87,30.28,30.15,7,0,0,0.01
2014-12-23,64.5,53.4,47.5,56.0,50.8,46.8,99,92,72,30.22,30.11,8,0,0,0.00
2014-12-24,57.2,50.4,45.5,55.1,47.0,38.7,98,89,70,30.12,29.85,11,2,12,0.04
2014-12-25,56.9,47.5,38.8,39.2,35.9,30.1,86,65,37,30.12,30.02,12,2,16,0.00
2014-12-26,56.6,45.8,37.1,37.4,33.9,31.2,89,64,39,30.28,30.08,12,2,16,0.00
2014-12-27,56.2,41.9,31.5,40.0,35.9,30.1,97,81,51,30.40,30.26,7,0,0,0.00
2014-12-28,56.9,42.7,33.4,41.7,36.7,32.1,97,82,48,30.37,30.22,3,0,0,0.00
2014-12-29,47.1,39.4,32.3,41.3,36.7,31.0,96,90,79,30.24,30.09,2,0,0,0.00
2014-12-30,55.7,43.3,32.6,35.3,24.4,12.1,97,56,20,30.29,30.08,20,4,22,0.00
2014-12-31,54.7,42.6,33.8,30.0,23.1,19.9,81,47,27,30.26,30.05,14,3,14,0.00
2015-1-1,51.2,37.1,27.2,34.0,30.0,25.2,95,77,48,30.19,30.10,8,0,0,0.00
2015-1-2,50.9,36.8,27.0,36.7,30.9,25.5,97,81,54,30.23,30.11,5,0,0,0.00